createdAt,value
2023-07-16T00:02:39.231Z,100.00
2023-07-16T00:08:01.125Z,100.00
2023-07-16T00:13:22.948Z,100.00
2023-07-16T00:18:47.934Z,100.00
2023-07-16T00:24:09.696Z,100.00
2023-07-16T00:29:31.550Z,100.00
2023-07-16T00:34:53.424Z,100.00
2023-07-16T00:40:15.257Z,100.00
2023-07-16T00:45:38.129Z,100.00
2023-07-16T00:51:01.570Z,100.00
2023-07-16T00:56:23.612Z,100.00
2023-07-16T01:01:45.612Z,100.00
2023-07-16T01:07:09.820Z,100.00
2023-07-16T01:12:33.377Z,100.00
2023-07-16T01:17:55.339Z,100.00
2023-07-16T01:23:30.862Z,100.00
2023-07-16T01:29:30.287Z,100.00
2023-07-16T01:34:54.099Z,100.00
2023-07-16T01:40:16.087Z,100.00
2023-07-16T01:45:37.971Z,100.00
2023-07-16T01:50:59.975Z,100.00
2023-07-16T01:56:21.873Z,100.00
2023-07-16T02:01:43.767Z,100.00
2023-07-16T02:07:05.798Z,100.00
2023-07-16T02:12:27.662Z,100.00
2023-07-16T02:17:49.459Z,100.00
2023-07-16T02:23:11.381Z,100.00
2023-07-16T02:28:33.260Z,100.00
2023-07-16T02:33:55.097Z,100.00
2023-07-16T02:39:16.895Z,100.00
2023-07-16T02:44:42.915Z,100.00
2023-07-16T02:50:05.220Z,100.00
2023-07-16T02:55:27.024Z,100.00
2023-07-16T03:00:48.936Z,99.53
2023-07-16T03:06:10.888Z,100.00
2023-07-16T03:11:32.752Z,99.97
2023-07-16T03:16:54.618Z,92.34
2023-07-16T03:22:16.577Z,93.64
2023-07-16T03:27:38.442Z,89.88
2023-07-16T03:33:00.260Z,89.84
2023-07-16T03:38:22.040Z,88.35
2023-07-16T03:43:43.869Z,90.47
2023-07-16T03:49:10.107Z,91.37
2023-07-16T03:54:32.194Z,87.84
2023-07-16T03:59:53.972Z,87.63
2023-07-16T04:05:15.816Z,89.19
2023-07-16T04:10:37.662Z,92.48
2023-07-16T04:15:59.910Z,91.67
2023-07-16T04:21:22.208Z,92.74
2023-07-16T04:26:44.152Z,91.45
2023-07-16T04:32:06.346Z,96.76
2023-07-16T04:37:28.232Z,95.49
2023-07-16T04:42:50.131Z,93.57
2023-07-16T04:48:11.967Z,95.74
2023-07-16T04:53:33.754Z,95.38
2023-07-16T04:58:55.550Z,91.92
2023-07-16T05:04:17.469Z,94.52
2023-07-16T05:09:39.327Z,94.90
2023-07-16T05:15:01.173Z,93.14
2023-07-16T05:20:22.990Z,93.85
2023-07-16T05:25:49.408Z,91.88
2023-07-16T05:31:11.508Z,94.23
2023-07-16T05:36:33.472Z,93.66
2023-07-16T05:41:55.410Z,93.54
2023-07-16T05:47:17.550Z,92.89
2023-07-16T05:52:39.512Z,92.72
2023-07-16T05:58:01.568Z,90.09
2023-07-16T06:03:23.485Z,89.76
2023-07-16T06:08:45.402Z,87.21
2023-07-16T06:14:07.242Z,83.68
2023-07-16T06:19:29.436Z,85.98
2023-07-16T06:24:51.274Z,84.10
2023-07-16T06:30:13.140Z,83.86
2023-07-16T06:35:35.180Z,82.38
2023-07-16T06:40:57.052Z,80.65
2023-07-16T06:46:19.137Z,77.99
2023-07-16T06:51:41.302Z,75.95
2023-07-16T06:57:03.246Z,73.56
2023-07-16T07:02:25.165Z,71.47
2023-07-16T07:07:47.077Z,72.81
2023-07-16T07:13:08.925Z,72.30
2023-07-16T07:18:30.841Z,71.06
2023-07-16T07:23:52.705Z,69.72
2023-07-16T07:29:14.745Z,64.75
2023-07-16T07:34:36.649Z,66.41
2023-07-16T07:40:00.270Z,60.27
2023-07-16T07:45:22.198Z,59.72
2023-07-16T07:50:44.046Z,60.60
2023-07-16T07:56:05.941Z,59.28
2023-07-16T08:01:28.151Z,59.61
2023-07-16T08:06:51.030Z,59.97
2023-07-16T08:12:15.669Z,59.77
2023-07-16T08:17:37.824Z,58.05
2023-07-16T08:22:59.715Z,52.73
2023-07-16T08:28:21.607Z,54.08
2023-07-16T08:33:43.441Z,54.57
2023-07-16T08:39:05.278Z,53.11
2023-07-16T08:44:27.737Z,50.99
2023-07-16T08:49:59.429Z,49.02
2023-07-16T08:55:21.509Z,47.31
2023-07-16T09:00:47.083Z,46.87
2023-07-16T09:06:08.999Z,47.82
2023-07-16T09:11:30.825Z,48.37
2023-07-16T09:16:53.827Z,47.26
2023-07-16T09:22:18.183Z,48.46
2023-07-16T09:27:40.116Z,47.61
2023-07-16T09:33:11.995Z,43.72
2023-07-16T09:38:34.327Z,41.17
2023-07-16T09:43:56.228Z,41.30
2023-07-16T09:49:19.261Z,41.35
2023-07-16T09:54:42.210Z,40.17
2023-07-16T10:00:07.980Z,41.20
2023-07-16T10:05:30.125Z,40.41
2023-07-16T10:10:57.917Z,39.44
2023-07-16T10:16:24.944Z,38.98
2023-07-16T10:21:46.848Z,38.50
2023-07-16T10:27:08.765Z,38.44
2023-07-16T10:32:32.109Z,37.82
2023-07-16T10:37:55.432Z,37.92
2023-07-16T10:43:17.309Z,38.27
2023-07-16T10:48:39.295Z,37.85
2023-07-16T10:54:01.084Z,38.18
2023-07-16T10:59:23.086Z,38.74
2023-07-16T11:04:46.854Z,35.34
2023-07-16T11:10:09.341Z,36.51
2023-07-16T11:15:33.684Z,35.98
2023-07-16T11:20:55.682Z,33.84
2023-07-16T11:26:17.782Z,35.17
2023-07-16T11:31:42.524Z,33.95
2023-07-16T11:37:13.331Z,37.39
2023-07-16T11:42:35.129Z,38.79
2023-07-16T11:47:57.051Z,37.55
2023-07-16T11:53:19.028Z,36.67
2023-07-16T11:58:40.913Z,35.60
2023-07-16T12:04:02.843Z,35.79
2023-07-16T12:09:24.836Z,33.83
2023-07-16T12:14:46.652Z,33.01
2023-07-16T12:20:08.693Z,31.17
2023-07-16T12:25:30.645Z,31.03
2023-07-16T12:30:52.512Z,32.73
2023-07-16T12:36:16.061Z,29.22
2023-07-16T12:41:38.172Z,28.51
2023-07-16T12:46:59.972Z,28.82
2023-07-16T12:52:21.889Z,29.05
2023-07-16T12:57:43.715Z,27.13
2023-07-16T13:03:06.521Z,25.52
2023-07-16T13:08:28.375Z,24.81
2023-07-16T13:13:50.200Z,25.00
2023-07-16T13:19:12.146Z,24.16
2023-07-16T13:24:33.944Z,23.34
2023-07-16T13:29:55.849Z,25.67
2023-07-16T13:35:17.830Z,27.99
2023-07-16T13:40:39.680Z,29.77
2023-07-16T13:46:01.496Z,31.92
2023-07-16T13:51:23.408Z,31.38
2023-07-16T13:56:45.454Z,30.92
2023-07-16T14:02:07.572Z,30.36
2023-07-16T14:07:29.669Z,28.78
2023-07-16T14:12:51.557Z,29.42
2023-07-16T14:18:13.483Z,29.92
2023-07-16T14:23:35.406Z,27.15
2023-07-16T14:28:57.660Z,32.23
2023-07-16T14:40:10.190Z,35.26
2023-07-16T14:45:32.230Z,35.60
2023-07-16T14:50:54.690Z,36.21
2023-07-16T14:56:16.814Z,35.57
2023-07-16T15:01:40.048Z,36.58
2023-07-16T15:07:02.619Z,35.92
2023-07-16T15:12:24.563Z,36.92
2023-07-16T15:17:46.594Z,38.06
2023-07-16T15:23:08.714Z,38.29
2023-07-16T15:28:35.212Z,37.13
2023-07-16T15:33:57.916Z,35.34
2023-07-16T15:39:19.920Z,35.86
2023-07-16T15:44:42.876Z,35.84
2023-07-16T15:50:05.039Z,36.33
2023-07-16T15:55:27.177Z,36.92
2023-07-16T16:00:49.118Z,36.56
2023-07-16T16:06:11.140Z,35.64
2023-07-16T16:11:33.027Z,32.66
2023-07-16T16:17:06.069Z,29.40
2023-07-16T16:22:29.158Z,29.47
2023-07-16T16:27:51.071Z,30.24
2023-07-16T16:33:13.106Z,31.52
2023-07-16T16:38:34.999Z,34.07
2023-07-16T16:43:56.836Z,35.11
2023-07-16T16:49:18.910Z,35.13
2023-07-16T16:54:40.705Z,35.47
2023-07-16T17:00:05.394Z,35.56
2023-07-16T17:05:27.818Z,35.69
2023-07-16T17:10:50.239Z,36.04
2023-07-16T17:16:12.101Z,36.41
2023-07-16T17:21:34.171Z,36.72
2023-07-16T17:26:56.095Z,36.40
2023-07-16T17:32:18.013Z,36.08
2023-07-16T17:37:39.970Z,37.04
2023-07-16T17:43:01.853Z,37.58
2023-07-16T17:48:24.597Z,38.83
2023-07-16T17:53:46.538Z,37.86
2023-07-16T17:59:11.449Z,38.03
2023-07-16T18:04:33.520Z,37.51
2023-07-16T18:09:55.616Z,37.91
2023-07-16T18:15:17.637Z,37.54
2023-07-16T18:20:39.449Z,38.11
2023-07-16T18:26:01.674Z,38.83
2023-07-16T18:31:24.365Z,38.78
2023-07-16T18:36:46.295Z,39.03
2023-07-16T18:42:08.406Z,39.00
2023-07-16T18:47:30.565Z,39.57
2023-07-16T18:52:52.570Z,40.67
2023-07-16T18:58:14.816Z,41.45
2023-07-16T19:03:36.887Z,40.40
2023-07-16T19:08:58.742Z,40.97
2023-07-16T19:14:20.618Z,41.73
2023-07-16T19:19:43.830Z,41.38
2023-07-16T19:25:06.378Z,43.39
2023-07-16T19:30:28.446Z,43.09
2023-07-16T19:36:05.045Z,43.15
2023-07-16T19:41:40.730Z,43.27
2023-07-16T19:47:02.769Z,43.33
2023-07-16T19:52:24.724Z,44.17
2023-07-16T19:57:46.606Z,43.83
2023-07-16T20:03:08.619Z,43.22
2023-07-16T20:08:30.468Z,44.14
2023-07-16T20:13:52.947Z,45.14
2023-07-16T20:19:15.213Z,44.46
2023-07-16T20:24:36.984Z,43.87
2023-07-16T20:29:59.136Z,44.25
2023-07-16T20:35:21.311Z,44.50
2023-07-16T20:40:43.258Z,44.74
2023-07-16T20:46:05.506Z,45.69
2023-07-16T20:51:27.443Z,45.60
2023-07-16T20:56:49.265Z,45.97
2023-07-16T21:02:11.109Z,45.92
2023-07-16T21:07:36.012Z,45.56
2023-07-16T21:13:03.241Z,45.62
2023-07-16T21:18:25.221Z,46.21
2023-07-16T21:23:47.095Z,47.61
2023-07-16T21:29:09.351Z,48.81
2023-07-16T21:34:31.224Z,49.39
2023-07-16T21:39:53.072Z,50.29
2023-07-16T21:45:15.040Z,50.87
2023-07-16T21:50:37.001Z,51.61
2023-07-16T21:55:58.841Z,52.37
2023-07-16T22:01:20.909Z,52.68
2023-07-16T22:06:42.846Z,53.36
2023-07-16T22:12:04.973Z,54.21
2023-07-16T22:17:27.275Z,53.52
2023-07-16T22:22:49.246Z,54.78
2023-07-16T22:28:11.071Z,54.74
2023-07-16T22:33:32.956Z,55.43
2023-07-16T22:38:54.824Z,56.56
2023-07-16T22:44:16.682Z,56.74
2023-07-16T22:49:38.474Z,57.70
2023-07-16T22:55:00.287Z,58.12
2023-07-16T23:00:23.289Z,57.81
2023-07-16T23:05:45.167Z,58.04
2023-07-16T23:11:07.066Z,58.44
2023-07-16T23:16:29.354Z,59.45
2023-07-16T23:21:51.160Z,59.33
2023-07-16T23:27:13.995Z,59.70
2023-07-16T23:32:35.985Z,59.88
2023-07-16T23:37:57.962Z,58.77
2023-07-16T23:43:19.915Z,59.93
2023-07-16T23:48:41.776Z,60.05
2023-07-16T23:54:20.752Z,60.90
2023-07-16T23:59:43.664Z,61.76
